createdAt,value
2018-04-11T00:00:20.500Z,6.27
2018-04-11T00:02:50.291Z,7.63
2018-04-11T00:05:20.085Z,4.97
2018-04-11T00:07:49.858Z,6.37
2018-04-11T00:10:19.663Z,5.87
2018-04-11T00:12:49.436Z,10.17
2018-04-11T00:15:19.211Z,6.23
2018-04-11T00:17:48.986Z,4.50
2018-04-11T00:20:18.748Z,5.60
2018-04-11T00:22:48.628Z,7.87
2018-04-11T00:25:18.371Z,5.47
2018-04-11T00:27:48.146Z,5.37
2018-04-11T00:30:17.891Z,6.43
2018-04-11T00:32:47.665Z,8.20
2018-04-11T00:35:17.457Z,5.00
2018-04-11T00:37:47.224Z,5.50
2018-04-11T00:40:16.984Z,6.20
2018-04-11T00:42:46.815Z,6.47
2018-04-11T00:45:16.623Z,5.73
2018-04-11T00:47:46.353Z,7.57
2018-04-11T00:50:16.228Z,5.50
2018-04-11T00:52:52.023Z,7.70
2018-04-11T00:55:21.816Z,5.07
2018-04-11T00:57:51.714Z,6.00
2018-04-11T01:00:21.484Z,6.13
2018-04-11T01:02:51.229Z,5.17
2018-04-11T01:05:21.000Z,5.20
2018-04-11T01:07:50.751Z,5.43
2018-04-11T01:10:20.553Z,7.50
2018-04-11T01:12:50.446Z,8.77
2018-04-11T01:15:20.186Z,5.10
2018-04-11T01:17:49.993Z,6.33
2018-04-11T01:20:19.796Z,5.03
2018-04-11T01:22:49.608Z,5.13
2018-04-11T01:25:19.394Z,5.67
2018-04-11T01:27:49.140Z,4.83
2018-04-11T01:30:18.920Z,6.23
2018-04-11T01:32:48.710Z,4.47
2018-04-11T01:35:18.481Z,6.03
2018-04-11T01:37:48.241Z,7.57
2018-04-11T01:40:18.042Z,6.77
2018-04-11T01:42:47.800Z,7.00
2018-04-11T01:45:17.566Z,7.00
2018-04-11T01:47:47.451Z,10.40
2018-04-11T01:50:17.183Z,8.93
2018-04-11T01:52:46.954Z,9.47
2018-04-11T01:55:16.742Z,9.43
2018-04-11T01:57:46.578Z,11.83
2018-04-11T02:00:16.362Z,12.00
2018-04-11T02:02:46.145Z,10.63
2018-04-11T02:05:15.915Z,9.20
2018-04-11T02:07:45.676Z,10.17
2018-04-11T02:10:15.481Z,9.83
2018-04-11T02:12:45.253Z,9.50
2018-04-11T02:15:15.020Z,9.87
2018-04-11T02:17:44.789Z,9.90
2018-04-11T02:20:14.576Z,9.57
2018-04-11T02:22:44.794Z,8.40
2018-04-11T02:25:14.600Z,7.07
2018-04-11T02:27:44.377Z,7.40
2018-04-11T02:30:14.219Z,7.33
2018-04-11T02:32:43.947Z,7.53
2018-04-11T02:35:13.723Z,8.27
2018-04-11T02:37:43.476Z,10.07
2018-04-11T02:40:13.498Z,8.50
2018-04-11T02:42:43.260Z,9.50
2018-04-11T02:45:13.106Z,9.10
2018-04-11T02:47:42.875Z,9.20
2018-04-11T02:50:12.952Z,10.20
2018-04-11T02:52:42.740Z,9.40
2018-04-11T02:55:12.509Z,8.70
2018-04-11T02:57:42.364Z,9.30
2018-04-11T03:00:12.229Z,10.93
2018-04-11T03:02:41.996Z,8.53
2018-04-11T03:05:11.760Z,8.80
2018-04-11T03:07:41.532Z,9.03
2018-04-11T03:10:11.517Z,9.57
2018-04-11T03:12:41.289Z,9.20
2018-04-11T03:15:11.046Z,8.53
2018-04-11T03:17:40.820Z,9.63
2018-04-11T03:20:10.792Z,9.37
2018-04-11T03:22:40.578Z,8.63
2018-04-11T03:25:10.333Z,8.50
2018-04-11T03:27:40.103Z,8.37
2018-04-11T03:30:10.199Z,8.00
2018-04-11T03:32:39.956Z,8.40
2018-04-11T03:35:09.752Z,9.77
2018-04-11T03:37:39.534Z,8.33
2018-04-11T03:40:09.493Z,8.80
2018-04-11T03:42:39.304Z,8.57
2018-04-11T03:45:09.063Z,10.53
2018-04-11T03:47:38.912Z,9.73
2018-04-11T03:50:08.948Z,9.83
2018-04-11T03:52:38.759Z,8.80
2018-04-11T03:55:08.514Z,8.63
2018-04-11T03:57:38.379Z,10.40
2018-04-11T04:00:08.413Z,9.80
2018-04-11T04:02:38.208Z,9.70
2018-04-11T04:05:07.964Z,9.70
2018-04-11T04:07:37.840Z,10.70
2018-04-11T04:10:07.842Z,11.70
2018-04-11T04:12:37.635Z,11.17
2018-04-11T04:15:13.284Z,10.67
2018-04-11T04:17:49.044Z,11.07
2018-04-11T04:20:24.589Z,11.27
2018-04-11T04:22:54.401Z,12.57
2018-04-11T04:25:24.273Z,11.60
2018-04-11T04:27:54.052Z,11.63
2018-04-11T04:30:23.889Z,12.13
2018-04-11T04:32:53.620Z,12.10
2018-04-11T04:35:23.388Z,11.87
2018-04-11T04:37:53.179Z,11.87
2018-04-11T04:40:22.944Z,12.40
2018-04-11T04:42:52.732Z,12.80
2018-04-11T04:45:22.517Z,12.37
2018-04-11T04:47:52.291Z,13.47
2018-04-11T04:50:22.128Z,13.47
2018-04-11T04:52:52.738Z,13.53
2018-04-11T04:55:22.686Z,14.60
2018-04-11T04:57:52.469Z,13.77
2018-04-11T05:00:22.302Z,14.77
2018-04-11T05:02:52.069Z,14.37
2018-04-11T05:05:21.846Z,14.40
2018-04-11T05:07:51.635Z,15.60
2018-04-11T05:10:21.459Z,15.07
2018-04-11T05:12:51.220Z,15.93
2018-04-11T05:15:21.000Z,15.03
2018-04-11T05:17:50.815Z,14.43
2018-04-11T05:20:20.595Z,15.80
2018-04-11T05:22:50.349Z,14.73
2018-04-11T05:25:20.133Z,15.47
2018-04-11T05:27:49.921Z,15.63
2018-04-11T05:30:19.747Z,16.83
2018-04-11T05:32:49.507Z,16.50
2018-04-11T05:35:19.280Z,16.63
2018-04-11T05:37:49.075Z,16.17
2018-04-11T05:40:18.844Z,15.80
2018-04-11T05:42:48.613Z,16.63
2018-04-11T05:45:18.499Z,16.30
2018-04-11T05:47:48.315Z,17.23
2018-04-11T05:50:18.086Z,20.10
2018-04-11T05:52:47.943Z,19.63
2018-04-11T05:55:17.749Z,18.30
2018-04-11T05:57:47.565Z,17.20
2018-04-11T06:00:17.347Z,16.97
2018-04-11T06:02:47.173Z,16.17
2018-04-11T06:05:16.980Z,17.33
2018-04-11T06:07:46.762Z,15.47
2018-04-11T06:10:16.540Z,15.50
2018-04-11T06:12:46.368Z,16.17
2018-04-11T06:15:16.157Z,14.00
2018-04-11T06:17:46.068Z,13.70
2018-04-11T06:20:15.822Z,15.43
2018-04-11T06:22:45.584Z,14.73
2018-04-11T06:25:15.369Z,13.93
2018-04-11T06:27:45.136Z,15.70
2018-04-11T06:30:14.904Z,19.40
2018-04-11T06:32:44.717Z,20.90
2018-04-11T06:35:14.499Z,19.47
2018-04-11T06:37:44.349Z,16.17
2018-04-11T06:40:14.227Z,23.23
2018-04-11T06:42:44.041Z,17.33
2018-04-11T06:45:13.877Z,14.20
2018-04-11T06:47:43.669Z,18.53
2018-04-11T06:50:13.683Z,16.20
2018-04-11T06:52:43.472Z,14.93
2018-04-11T06:55:13.267Z,15.83
2018-04-11T06:57:43.042Z,14.73
2018-04-11T07:00:13.132Z,13.67
2018-04-11T07:02:42.997Z,15.60
2018-04-11T07:05:12.736Z,14.63
2018-04-11T07:07:42.604Z,14.03
2018-04-11T07:10:12.729Z,14.60
2018-04-11T07:12:42.512Z,15.43
2018-04-11T07:15:12.355Z,14.37
2018-04-11T07:17:42.140Z,13.93
2018-04-11T07:20:12.181Z,15.57
2018-04-11T07:22:41.963Z,14.63
2018-04-11T07:25:11.749Z,14.03
2018-04-11T07:27:41.520Z,13.93
2018-04-11T07:30:11.453Z,14.10
2018-04-11T07:32:41.333Z,14.13
2018-04-11T07:35:11.232Z,13.13
2018-04-11T07:37:41.013Z,14.00
2018-04-11T07:40:10.893Z,12.73
2018-04-11T07:42:40.784Z,15.90
2018-04-11T07:45:10.549Z,13.20
2018-04-11T07:47:40.337Z,14.90
2018-04-11T07:50:10.348Z,12.17
2018-04-11T07:52:40.142Z,12.17
2018-04-11T07:55:09.892Z,14.87
2018-04-11T07:57:39.679Z,13.93
2018-04-11T08:00:09.692Z,11.53
2018-04-11T08:02:39.497Z,13.07
2018-04-11T08:05:09.267Z,12.80
2018-04-11T08:07:39.117Z,11.27
2018-04-11T08:10:09.240Z,12.00
2018-04-11T08:12:39.053Z,10.43
2018-04-11T08:15:08.849Z,13.33
2018-04-11T08:17:38.615Z,11.87
2018-04-11T08:20:08.747Z,15.57
2018-04-11T08:22:38.596Z,10.53
2018-04-11T08:25:08.367Z,10.80
2018-04-11T08:27:38.152Z,9.87
2018-04-11T08:30:08.248Z,9.73
2018-04-11T08:32:37.999Z,9.90
2018-04-11T08:35:07.771Z,9.30
2018-04-11T08:37:37.593Z,9.67
2018-04-11T08:40:07.702Z,9.50
2018-04-11T08:42:37.460Z,10.77
2018-04-11T08:45:07.256Z,9.17
2018-04-11T08:47:37.016Z,10.90
2018-04-11T08:50:07.101Z,8.67
2018-04-11T08:52:36.882Z,9.60
2018-04-11T08:55:06.677Z,8.40
2018-04-11T08:57:36.461Z,8.13
2018-04-11T09:00:06.626Z,10.40
2018-04-11T09:02:36.512Z,6.60
2018-04-11T09:05:06.327Z,6.00
2018-04-11T09:07:36.084Z,5.03
2018-04-11T09:10:06.163Z,6.53
2018-04-11T09:12:35.904Z,4.63
2018-04-11T09:15:05.672Z,5.23
2018-04-11T09:17:35.456Z,5.30
2018-04-11T09:20:05.514Z,5.17
2018-04-11T09:22:35.291Z,5.00
2018-04-11T09:25:05.068Z,4.43
2018-04-11T09:27:34.827Z,5.80
2018-04-11T09:30:04.971Z,4.97
2018-04-11T09:32:34.744Z,4.07
2018-04-11T09:35:04.534Z,4.00
2018-04-11T09:37:34.280Z,4.60
2018-04-11T09:40:04.416Z,4.57
2018-04-11T09:42:34.336Z,4.57
2018-04-11T09:45:04.113Z,4.27
2018-04-11T09:47:33.944Z,4.93
2018-04-11T09:50:03.972Z,7.27
2018-04-11T09:52:33.748Z,4.20
2018-04-11T09:55:03.591Z,5.07
2018-04-11T09:57:33.376Z,3.83
2018-04-11T10:00:03.425Z,4.33
2018-04-11T10:02:36.042Z,3.87
2018-04-11T10:05:05.810Z,4.60
2018-04-11T10:07:35.626Z,4.27
2018-04-11T10:10:05.609Z,4.03
2018-04-11T10:12:35.455Z,3.50
2018-04-11T10:15:05.229Z,4.77
2018-04-11T10:17:35.040Z,5.40
2018-04-11T10:20:04.816Z,3.50
2018-04-11T10:22:34.591Z,3.30
2018-04-11T10:25:04.348Z,2.47
2018-04-11T10:27:34.105Z,4.33
2018-04-11T10:30:04.026Z,3.00
2018-04-11T10:32:33.934Z,3.00
2018-04-11T10:35:03.700Z,3.90
2018-04-11T10:37:33.487Z,3.13
2018-04-11T10:40:03.451Z,3.33
2018-04-11T10:42:33.225Z,3.97
2018-04-11T10:45:02.982Z,3.87
2018-04-11T10:47:32.784Z,4.27
2018-04-11T10:50:02.838Z,3.37
2018-04-11T10:52:32.629Z,3.83
2018-04-11T10:55:02.396Z,3.30
2018-04-11T10:57:32.930Z,3.37
2018-04-11T11:00:03.160Z,3.63
2018-04-11T11:02:32.923Z,3.87
2018-04-11T11:05:02.675Z,3.80
2018-04-11T11:07:32.544Z,3.77
2018-04-11T11:10:02.765Z,3.57
2018-04-11T11:12:32.545Z,4.03
2018-04-11T11:15:02.380Z,4.70
2018-04-11T11:17:32.204Z,3.90
2018-04-11T11:20:02.119Z,4.43
2018-04-11T11:22:31.907Z,5.13
2018-04-11T11:25:01.674Z,4.10
2018-04-11T11:27:31.456Z,3.83
2018-04-11T11:30:01.720Z,4.10
2018-04-11T11:32:31.561Z,5.30
2018-04-11T11:35:01.400Z,4.40
2018-04-11T11:37:31.171Z,4.57
2018-04-11T11:40:00.938Z,4.83
2018-04-11T11:42:30.699Z,8.63
2018-04-11T11:45:00.481Z,6.03
2018-04-11T11:47:30.253Z,7.03
2018-04-11T11:50:00.021Z,8.33
2018-04-11T11:52:29.977Z,4.30
2018-04-11T11:54:59.736Z,6.43
2018-04-11T11:57:29.761Z,5.07
2018-04-11T11:59:59.535Z,5.00
2018-04-11T12:02:29.309Z,4.60
2018-04-11T12:04:59.147Z,7.63
2018-04-11T12:07:28.939Z,7.83
2018-04-11T12:09:58.711Z,9.10
2018-04-11T12:12:28.472Z,7.20
2018-04-11T12:14:58.264Z,6.00
2018-04-11T12:17:28.028Z,8.73
2018-04-11T12:19:58.199Z,11.77
2018-04-11T12:22:27.975Z,9.30
2018-04-11T12:24:57.756Z,8.43
2018-04-11T12:27:27.544Z,10.20
2018-04-11T12:29:57.671Z,18.57
2018-04-11T12:32:27.438Z,11.83
2018-04-11T12:34:57.208Z,13.10
2018-04-11T12:37:27.055Z,14.87
2018-04-11T12:39:56.961Z,8.30
2018-04-11T12:42:26.724Z,8.13
2018-04-11T12:44:56.501Z,7.60
2018-04-11T12:47:26.252Z,8.43
2018-04-11T12:49:56.035Z,9.07
2018-04-11T12:52:25.804Z,11.50
2018-04-11T12:54:55.587Z,16.50
2018-04-11T12:57:25.357Z,19.70
2018-04-11T12:59:55.203Z,4.73
2018-04-11T13:02:24.950Z,3.90
2018-04-11T13:04:54.827Z,5.80
2018-04-11T13:07:24.578Z,8.90
2018-04-11T13:09:54.447Z,6.03
2018-04-11T13:12:24.208Z,6.87
2018-04-11T13:14:53.988Z,6.67
2018-04-11T13:17:23.763Z,11.23
2018-04-11T13:19:53.533Z,5.07
2018-04-11T13:22:23.303Z,4.77
2018-04-11T13:24:53.051Z,3.43
2018-04-11T13:27:22.828Z,6.10
2018-04-11T13:29:52.752Z,8.40
2018-04-11T13:32:22.498Z,5.20
2018-04-11T13:34:52.251Z,6.00
2018-04-11T13:37:22.035Z,5.27
2018-04-11T13:39:51.886Z,12.10
2018-04-11T13:42:21.652Z,7.63
2018-04-11T13:44:51.426Z,12.20
2018-04-11T13:47:21.408Z,5.47
2018-04-11T13:49:51.178Z,23.73
2018-04-11T13:52:20.960Z,13.57
2018-04-11T13:54:50.736Z,18.90
2018-04-11T13:57:20.535Z,12.67
2018-04-11T13:59:50.319Z,13.20
2018-04-11T14:02:20.120Z,11.47
2018-04-11T14:04:49.956Z,11.20
2018-04-11T14:07:19.732Z,15.83
2018-04-11T14:09:49.513Z,9.43
2018-04-11T14:12:19.340Z,9.13
2018-04-11T14:14:49.100Z,8.60
2018-04-11T14:17:18.955Z,7.87
2018-04-11T14:19:48.754Z,22.70
2018-04-11T14:22:18.565Z,8.93
2018-04-11T14:24:48.320Z,7.00
2018-04-11T14:27:18.101Z,12.20
2018-04-11T14:29:47.867Z,12.13
2018-04-11T14:32:17.658Z,8.53
2018-04-11T14:34:47.455Z,4.50
2018-04-11T14:37:17.212Z,5.53
2018-04-11T14:39:47.059Z,6.00
2018-04-11T14:42:16.828Z,5.07
2018-04-11T14:44:46.587Z,5.03
2018-04-11T14:47:16.383Z,5.90
2018-04-11T14:49:46.147Z,4.93
2018-04-11T14:52:15.915Z,3.20
2018-04-11T14:54:45.684Z,4.27
2018-04-11T14:57:15.639Z,2.90
2018-04-11T14:59:45.395Z,2.60
2018-04-11T15:02:15.153Z,2.83
2018-04-11T15:04:44.945Z,3.23
2018-04-11T15:07:14.720Z,2.70
2018-04-11T15:09:44.512Z,2.63
2018-04-11T15:12:14.276Z,2.67
2018-04-11T15:14:44.056Z,3.33
2018-04-11T15:17:13.820Z,2.73
2018-04-11T15:19:43.609Z,2.70
2018-04-11T15:22:13.372Z,2.80
2018-04-11T15:24:43.148Z,2.67
2018-04-11T15:27:12.900Z,2.43
2018-04-11T15:29:42.773Z,3.03
2018-04-11T15:32:12.530Z,2.13
2018-04-11T15:34:42.291Z,2.33
2018-04-11T15:37:12.051Z,2.50
2018-04-11T15:39:41.920Z,2.63
2018-04-11T15:42:11.697Z,2.80
2018-04-11T15:44:41.544Z,2.80
2018-04-11T15:47:11.326Z,2.97
2018-04-11T15:49:41.112Z,5.70
2018-04-11T15:52:10.871Z,10.67
2018-04-11T15:54:40.656Z,5.83
2018-04-11T15:57:10.453Z,5.00
2018-04-11T15:59:40.311Z,13.00
2018-04-11T16:02:10.136Z,13.23
2018-04-11T16:04:39.943Z,23.47
2018-04-11T16:07:09.724Z,27.33
2018-04-11T16:09:39.498Z,15.93
2018-04-11T16:12:09.375Z,56.47
2018-04-11T16:14:39.179Z,25.10
2018-04-11T16:17:08.967Z,9.90
2018-04-11T16:19:38.766Z,31.90
2018-04-11T16:22:08.544Z,7.87
2018-04-11T16:24:38.304Z,3.20
2018-04-11T16:27:08.085Z,10.23
2018-04-11T16:29:37.843Z,10.00
2018-04-11T16:32:07.637Z,6.87
2018-04-11T16:34:37.408Z,5.00
2018-04-11T16:37:07.285Z,6.63
2018-04-11T16:39:37.116Z,2.60
2018-04-11T16:42:06.998Z,4.27
2018-04-11T16:44:36.761Z,2.40
2018-04-11T16:47:06.540Z,2.80
2018-04-11T16:49:36.336Z,3.33
2018-04-11T16:52:06.099Z,1.90
2018-04-11T16:54:35.871Z,3.23
2018-04-11T16:57:05.651Z,1.90
2018-04-11T16:59:35.403Z,2.17
2018-04-11T17:02:05.220Z,2.20
2018-04-11T17:04:34.966Z,2.00
2018-04-11T17:07:04.735Z,2.13
2018-04-11T17:09:34.542Z,2.17
2018-04-11T17:12:04.281Z,2.00
2018-04-11T17:14:34.041Z,2.13
2018-04-11T17:17:03.862Z,2.00
2018-04-11T17:19:33.577Z,2.13
2018-04-11T17:22:09.281Z,1.87
2018-04-11T17:24:45.127Z,1.63
2018-04-11T17:27:20.704Z,1.70
2018-04-11T17:29:56.200Z,2.27
2018-04-11T17:32:26.028Z,2.10
2018-04-11T17:34:55.901Z,2.17
2018-04-11T17:37:25.705Z,2.27
2018-04-11T17:39:55.460Z,2.20
2018-04-11T17:42:25.229Z,1.90
2018-04-11T17:44:54.993Z,1.80
2018-04-11T17:47:24.753Z,2.27
2018-04-11T17:49:54.540Z,2.17
2018-04-11T17:52:24.360Z,2.27
2018-04-11T17:54:54.175Z,2.90
2018-04-11T17:57:23.971Z,2.43
2018-04-11T17:59:53.712Z,2.87
2018-04-11T18:02:23.476Z,2.57
2018-04-11T18:04:53.328Z,2.77
2018-04-11T18:07:23.132Z,3.23
2018-04-11T18:09:52.904Z,3.37
2018-04-11T18:12:22.704Z,5.43
2018-04-11T18:14:52.511Z,6.37
2018-04-11T18:17:22.281Z,8.43
2018-04-11T18:19:52.076Z,7.60
2018-04-11T18:22:21.925Z,23.20
2018-04-11T18:24:51.698Z,6.53
2018-04-11T18:27:21.464Z,23.53
2018-04-11T18:29:51.263Z,13.17
2018-04-11T18:32:21.000Z,13.57
2018-04-11T18:34:50.784Z,15.67
2018-04-11T18:37:20.573Z,15.73
2018-04-11T18:39:50.384Z,16.13
2018-04-11T18:42:20.192Z,17.23
2018-04-11T18:44:50.009Z,13.87
2018-04-11T18:47:19.839Z,11.40
2018-04-11T18:49:49.616Z,6.60
2018-04-11T18:52:19.384Z,8.50
2018-04-11T18:54:49.168Z,6.33
2018-04-11T18:57:18.957Z,9.77
2018-04-11T18:59:48.733Z,11.47
2018-04-11T19:02:18.490Z,14.53
2018-04-11T19:04:48.285Z,21.03
2018-04-11T19:07:18.056Z,11.57
2018-04-11T19:09:47.924Z,12.77
2018-04-11T19:12:17.710Z,16.20
2018-04-11T19:14:47.496Z,7.53
2018-04-11T19:17:17.260Z,13.17
2018-04-11T19:19:47.062Z,8.33
2018-04-11T19:22:16.889Z,4.93
2018-04-11T19:24:46.644Z,11.50
2018-04-11T19:27:16.436Z,8.17
2018-04-11T19:29:46.249Z,8.67
2018-04-11T19:32:16.128Z,8.80
2018-04-11T19:34:46.003Z,7.10
2018-04-11T19:37:15.854Z,6.87
2018-04-11T19:39:45.675Z,5.10
2018-04-11T19:42:15.562Z,5.87
2018-04-11T19:44:45.310Z,5.93
2018-04-11T19:47:15.160Z,4.33
2018-04-11T19:49:44.912Z,4.43
2018-04-11T19:52:15.270Z,4.30
2018-04-11T19:54:45.045Z,4.63
2018-04-11T19:57:14.857Z,3.83
2018-04-11T19:59:44.827Z,3.83
2018-04-11T20:02:14.685Z,5.03
2018-04-11T20:04:44.436Z,3.37
2018-04-11T20:07:14.295Z,3.47
2018-04-11T20:09:44.077Z,3.57
2018-04-11T20:12:13.840Z,3.73
2018-04-11T20:14:43.610Z,3.60
2018-04-11T20:17:13.391Z,4.13
2018-04-11T20:19:43.265Z,4.30
2018-04-11T20:22:13.032Z,4.40
2018-04-11T20:24:42.799Z,3.63
2018-04-11T20:27:12.679Z,3.77
2018-04-11T20:29:42.452Z,4.10
2018-04-11T20:32:12.249Z,4.03
2018-04-11T20:34:42.308Z,4.13
2018-04-11T20:37:12.161Z,4.30
2018-04-11T20:39:41.920Z,4.83
2018-04-11T20:42:11.695Z,3.63
2018-04-11T20:44:41.467Z,4.10
2018-04-11T20:47:11.271Z,4.37
2018-04-11T20:49:41.030Z,3.70
2018-04-11T20:52:10.921Z,3.57
2018-04-11T20:54:40.945Z,3.90
2018-04-11T20:57:10.859Z,4.00
2018-04-11T20:59:40.612Z,4.23
2018-04-11T21:02:10.469Z,4.10
2018-04-11T21:04:40.235Z,3.63
2018-04-11T21:07:10.019Z,3.80
2018-04-11T21:09:39.777Z,3.90
2018-04-11T21:12:09.552Z,4.83
2018-04-11T21:14:39.324Z,11.80
2018-04-11T21:17:09.295Z,9.17
2018-04-11T21:19:39.063Z,5.43
2018-04-11T21:22:08.837Z,7.20
2018-04-11T21:24:38.672Z,7.60
2018-04-11T21:27:08.563Z,5.47
2018-04-11T21:29:38.308Z,6.80
2018-04-11T21:32:08.076Z,5.63
2018-04-11T21:34:37.840Z,9.27
2018-04-11T21:37:07.628Z,10.33
2018-04-11T21:39:37.412Z,8.17
2018-04-11T21:42:07.195Z,6.10
2018-04-11T21:44:37.048Z,8.10
2018-04-11T21:47:06.825Z,7.10
2018-04-11T21:49:36.604Z,11.17
2018-04-11T21:52:06.379Z,6.70
2018-04-11T21:54:36.156Z,8.30
2018-04-11T21:57:05.964Z,5.97
2018-04-11T21:59:35.872Z,6.30
2018-04-11T22:02:05.762Z,6.77
2018-04-11T22:04:35.577Z,4.50
2018-04-11T22:07:05.356Z,5.53
2018-04-11T22:09:35.220Z,4.37
2018-04-11T22:12:04.995Z,5.20
2018-04-11T22:14:34.749Z,5.97
2018-04-11T22:17:04.516Z,5.90
2018-04-11T22:19:34.280Z,5.83
2018-04-11T22:22:04.038Z,7.87
2018-04-11T22:24:33.913Z,6.33
2018-04-11T22:27:03.666Z,7.73
2018-04-11T22:29:33.488Z,5.40
2018-04-11T22:32:03.220Z,6.63
2018-04-11T22:34:32.995Z,5.03
2018-04-11T22:37:03.742Z,5.63
2018-04-11T22:39:33.521Z,6.87
2018-04-11T22:42:03.284Z,6.97
2018-04-11T22:44:33.070Z,6.37
2018-04-11T22:47:02.875Z,7.67
2018-04-11T22:49:32.648Z,6.47
2018-04-11T22:52:02.485Z,8.63
2018-04-11T22:54:32.286Z,8.20
2018-04-11T22:57:02.052Z,7.50
2018-04-11T22:59:31.846Z,6.30
2018-04-11T23:02:01.698Z,17.53
2018-04-11T23:04:31.467Z,8.17
2018-04-11T23:07:01.238Z,10.27
2018-04-11T23:09:31.029Z,8.20
2018-04-11T23:12:00.806Z,5.30
2018-04-11T23:14:30.582Z,5.43
2018-04-11T23:17:00.348Z,7.67
2018-04-11T23:19:30.119Z,8.00
2018-04-11T23:21:59.905Z,12.47
2018-04-11T23:24:29.861Z,7.17
2018-04-11T23:26:59.760Z,8.43
2018-04-11T23:29:29.597Z,6.43
2018-04-11T23:31:59.399Z,9.73
2018-04-11T23:34:29.163Z,7.10
2018-04-11T23:36:59.011Z,6.50
2018-04-11T23:39:28.835Z,6.00
2018-04-11T23:41:58.598Z,7.87
2018-04-11T23:44:28.370Z,11.53
2018-04-11T23:46:58.276Z,6.83
2018-04-11T23:49:28.031Z,5.80
2018-04-11T23:51:57.835Z,12.23
2018-04-11T23:54:27.620Z,12.57
2018-04-11T23:56:57.567Z,6.00
2018-04-11T23:59:27.362Z,7.57
